Time;durP1;ratioP1;P1;durP2;ratioP2;P2;SDS_P1;SDS_P2;PMS_P1;PMS_P2;Temp;Humidity;BMP_temperature;BMP_pressure;BME280_temperature;BME280_humidity;BME280_pressure;Samples;Min_cycle;Max_cycle;Signal;HPM_P1;HPM_P2
2021/01/24 00:01:51;;;;;;;5.50;4.43;;;;;;;4.33;69.98;93364.84;5032371;28;20295;-78
2021/01/24 00:04:18;;;;;;;6.00;4.30;;;;;;;4.33;69.74;93374.25;5031767;28;20310;-77
2021/01/24 00:06:44;;;;;;;4.93;4.30;;;;;;;4.33;69.63;93385.22;5032471;28;20209;-78
2021/01/24 00:09:10;;;;;;;5.17;4.30;;;;;;;4.35;69.89;93387.59;5031554;28;20198;-78
2021/01/24 00:11:36;;;;;;;4.43;4.03;;;;;;;4.30;70.25;93398.34;5031831;28;20222;-77
2021/01/24 00:14:02;;;;;;;4.63;4.10;;;;;;;4.28;70.07;93394.41;5031083;28;20234;-77
2021/01/24 00:16:28;;;;;;;4.07;3.67;;;;;;;4.26;70.81;93384.41;5031634;28;20203;-77
2021/01/24 00:18:54;;;;;;;4.37;3.97;;;;;;;4.30;70.10;93387.38;5031376;28;20289;-78
2021/01/24 00:21:21;;;;;;;5.80;4.20;;;;;;;4.36;69.92;93386.63;5031317;28;20218;-77
2021/01/24 00:23:49;;;;;;;4.30;3.90;;;;;;;4.24;70.88;93378.72;5031667;28;20252;-78
2021/01/24 00:26:15;;;;;;;4.00;3.63;;;;;;;4.32;70.45;93383.66;5031771;28;20201;-77
2021/01/24 00:28:41;;;;;;;3.83;3.43;;;;;;;4.38;70.53;93384.66;5032084;28;20200;-77
2021/01/24 00:31:07;;;;;;;4.63;3.90;;;;;;;4.43;70.46;93383.09;5031269;28;20198;-77
2021/01/24 00:33:33;;;;;;;3.70;3.40;;;;;;;4.47;69.96;93384.28;5031637;28;20238;-77
2021/01/24 00:35:59;;;;;;;4.87;4.27;;;;;;;4.43;70.78;93384.84;5030928;28;20194;-77
2021/01/24 00:38:26;;;;;;;5.43;4.80;;;;;;;4.44;70.83;93386.41;5031509;28;20281;-77
2021/01/24 00:40:52;;;;;;;6.67;5.40;;;;;;;4.50;71.01;93375.47;5031165;28;20209;-77
2021/01/24 00:43:20;;;;;;;8.20;6.27;;;;;;;4.56;71.06;93379.00;5030807;28;20210;-77
2021/01/24 00:45:48;;;;;;;6.00;5.37;;;;;;;4.60;71.24;93386.06;5031228;28;20291;-77
2021/01/24 00:48:14;;;;;;;5.33;4.30;;;;;;;4.56;71.22;93379.00;5031111;28;20689;-77
2021/01/24 00:50:40;;;;;;;4.57;4.17;;;;;;;4.57;71.79;93383.91;5031478;28;20198;-77
2021/01/24 00:53:06;;;;;;;5.47;4.10;;;;;;;4.53;71.99;93372.53;5031112;28;20325;-77
2021/01/24 00:55:33;;;;;;;4.83;4.33;;;;;;;4.46;72.29;93376.81;5031125;28;20205;-77
2021/01/24 00:57:59;;;;;;;5.43;4.70;;;;;;;4.36;73.18;93402.69;5030549;28;20209;-77
2021/01/24 01:00:25;;;;;;;4.23;3.60;;;;;;;4.25;73.02;93400.66;5031055;28;20213;-78
2021/01/24 01:02:51;;;;;;;3.90;3.50;;;;;;;4.21;72.89;93403.81;5030840;28;20268;-78
2021/01/24 01:05:17;;;;;;;3.93;3.53;;;;;;;4.25;72.40;93403.22;5030735;28;20309;-78
2021/01/24 01:07:43;;;;;;;4.17;3.77;;;;;;;4.33;72.26;93395.41;5030907;28;20264;-78
2021/01/24 01:10:10;;;;;;;4.73;3.93;;;;;;;4.33;72.43;93402.28;5030746;28;20198;-77
2021/01/24 01:12:37;;;;;;;5.60;3.37;;;;;;;4.34;71.97;93406.41;5029978;28;20222;-78
2021/01/24 01:15:04;;;;;;;4.10;3.77;;;;;;;4.39;71.72;93399.75;5030498;28;20206;-77
2021/01/24 01:17:30;;;;;;;4.00;3.57;;;;;;;4.46;71.05;93399.75;5030688;28;20194;-77
2021/01/24 01:19:56;;;;;;;3.80;3.43;;;;;;;4.46;70.88;93408.19;5030522;28;20213;-77
2021/01/24 01:22:22;;;;;;;3.57;3.27;;;;;;;4.43;70.61;93411.09;5030364;28;20226;-77
2021/01/24 01:24:48;;;;;;;3.60;3.30;;;;;;;4.42;70.50;93409.56;5029747;28;20218;-77
2021/01/24 01:27:14;;;;;;;3.37;3.07;;;;;;;4.37;69.53;93404.25;5029223;28;20210;-77
2021/01/24 01:29:41;;;;;;;3.10;2.90;;;;;;;4.33;69.84;93409.91;5029819;28;20223;-77
2021/01/24 01:32:07;;;;;;;3.07;2.80;;;;;;;4.39;69.08;93406.59;5030022;28;20210;-77
2021/01/24 01:34:33;;;;;;;2.83;2.53;;;;;;;4.38;68.92;93399.94;5029917;28;20217;-77
2021/01/24 01:36:59;;;;;;;3.33;2.93;;;;;;;4.25;69.04;93402.44;5029697;28;20217;-77
2021/01/24 01:39:25;;;;;;;3.30;3.00;;;;;;;4.28;69.28;93409.69;5029974;28;20198;-77
2021/01/24 01:41:51;;;;;;;2.67;2.47;;;;;;;4.16;69.19;93396.75;5029470;28;20257;-77
2021/01/24 01:44:17;;;;;;;3.03;2.73;;;;;;;4.10;69.25;93405.91;5029968;28;20221;-77
2021/01/24 01:46:44;;;;;;;3.00;2.73;;;;;;;4.06;69.30;93403.94;5029881;28;20210;-77
2021/01/24 01:49:10;;;;;;;2.50;2.30;;;;;;;4.11;68.84;93401.63;5029621;28;20661;-77
2021/01/24 01:51:36;;;;;;;2.90;2.60;;;;;;;4.13;68.50;93397.91;5029820;28;20222;-77
2021/01/24 01:54:02;;;;;;;2.50;2.30;;;;;;;4.11;67.97;93401.63;5029574;28;20205;-77
2021/01/24 01:56:28;;;;;;;2.40;2.20;;;;;;;4.15;67.71;93401.03;5029843;28;20213;-77
2021/01/24 01:58:54;;;;;;;2.20;2.00;;;;;;;4.10;66.88;93402.59;5029595;28;20550;-77
2021/01/24 02:01:28;;;;;;;1.70;1.60;;;;;;;4.02;66.93;93408.66;5029846;28;20585;-77
2021/01/24 02:04:07;;;;;;;1.50;1.40;;;;;;;4.01;66.91;93409.63;5029086;28;20559;-77
2021/01/24 02:06:38;;;;;;;1.70;1.60;;;;;;;3.97;67.13;93408.44;5029645;28;20202;-77
2021/01/24 02:09:11;;;;;;;1.77;1.67;;;;;;;3.95;66.96;93418.00;5029921;28;20205;-77
2021/01/24 02:11:44;;;;;;;1.97;1.70;;;;;;;4.02;66.76;93418.03;5030641;28;20701;-77
2021/01/24 02:14:20;;;;;;;1.57;1.47;;;;;;;4.01;67.09;93411.38;5029030;28;20195;-77
2021/01/24 02:16:48;;;;;;;1.40;1.30;;;;;;;4.03;67.03;93420.41;5029882;28;20205;-77
2021/01/24 02:19:24;;;;;;;1.37;1.27;;;;;;;4.06;66.90;93426.84;5029173;28;20194;-77
2021/01/24 02:21:52;;;;;;;1.30;1.20;;;;;;;4.04;67.26;93431.38;5029823;28;20226;-77
2021/01/24 02:24:22;;;;;;;1.13;1.07;;;;;;;4.04;67.58;93432.13;5029129;28;20218;-77
2021/01/24 02:27:00;;;;;;;1.30;1.20;;;;;;;4.11;67.38;93432.16;5029587;28;20198;-77
2021/01/24 02:29:39;;;;;;;1.27;1.17;;;;;;;4.04;67.67;93429.59;5029424;28;20195;-77
2021/01/24 02:32:09;;;;;;;1.00;1.00;;;;;;;4.06;67.66;93432.72;5029199;28;20713;-77
2021/01/24 02:34:38;;;;;;;1.00;1.00;;;;;;;4.11;67.81;93430.41;5029684;28;20678;-78
2021/01/24 02:37:05;;;;;;;0.80;0.80;;;;;;;4.07;67.97;93424.13;5029567;28;20202;-77
2021/01/24 02:39:32;;;;;;;0.80;0.80;;;;;;;4.09;68.23;93422.16;5033487;28;20736;-77
2021/01/24 02:41:59;;;;;;;0.97;0.93;;;;;;;4.14;68.33;93430.03;5033178;28;20268;-77
2021/01/24 02:44:27;;;;;;;0.80;0.80;;;;;;;4.08;69.02;93428.25;5033155;28;20223;-78
2021/01/24 02:46:54;;;;;;;0.80;0.80;;;;;;;4.12;68.73;93442.16;5033470;28;20202;-78
2021/01/24 02:49:22;;;;;;;0.87;0.80;;;;;;;4.11;69.19;93429.63;5033544;28;20604;-78
2021/01/24 02:51:49;;;;;;;0.90;0.83;;;;;;;4.14;69.49;93432.56;5033090;28;20215;-78
2021/01/24 02:54:16;;;;;;;0.80;0.80;;;;;;;4.11;69.83;93440.59;5032970;28;20252;-77
2021/01/24 02:56:43;;;;;;;0.97;0.97;;;;;;;4.00;70.29;93441.13;5032807;28;20213;-77
2021/01/24 02:59:09;;;;;;;1.23;1.10;;;;;;;4.02;70.66;93438.41;5033210;28;20563;-77
2021/01/24 03:01:35;;;;;;;0.80;0.80;;;;;;;3.93;71.21;93437.78;5033484;28;20269;-78
2021/01/24 03:04:02;;;;;;;0.90;0.90;;;;;;;3.99;71.04;93436.25;5032550;28;20194;-77
2021/01/24 03:06:29;;;;;;;1.03;0.80;;;;;;;3.90;71.33;93448.31;5033091;28;20260;-78
2021/01/24 03:08:56;;;;;;;0.73;0.73;;;;;;;3.86;71.32;93443.78;5033105;28;20202;-77
2021/01/24 03:11:23;;;;;;;0.80;0.80;;;;;;;3.85;71.30;93449.88;5032545;28;20237;-78
2021/01/24 03:13:55;;;;;;;0.90;0.90;;;;;;;3.82;71.76;93445.94;5013013;28;20206;-77
2021/01/24 03:16:22;;;;;;;1.03;0.93;;;;;;;3.78;71.48;93449.84;5013995;28;20757;-78
2021/01/24 03:18:51;;;;;;;1.17;0.80;;;;;;;3.75;72.22;93452.75;5032970;28;20207;-77
2021/01/24 03:21:21;;;;;;;0.60;0.60;;;;;;;3.84;71.80;93459.28;5032073;28;20213;-78
2021/01/24 03:23:50;;;;;;;1.03;0.77;;;;;;;3.85;71.61;93454.97;5032154;28;20779;-77
2021/01/24 03:26:18;;;;;;;0.70;0.70;;;;;;;3.98;71.12;93462.66;5032249;28;20716;-77
2021/01/24 03:28:45;;;;;;;0.90;0.90;;;;;;;3.94;71.20;93469.09;5032502;28;20193;-77
2021/01/24 03:31:11;;;;;;;0.90;0.90;;;;;;;3.85;71.55;93463.38;5032921;28;20198;-78
2021/01/24 03:33:38;;;;;;;1.03;0.80;;;;;;;3.98;71.39;93465.22;5032934;28;20213;-78
2021/01/24 03:36:05;;;;;;;0.70;0.70;;;;;;;4.03;71.25;93467.97;5032576;28;20210;-78
2021/01/24 03:38:31;;;;;;;1.00;1.00;;;;;;;4.06;71.19;93472.69;5032233;28;20540;-77
2021/01/24 03:40:58;;;;;;;0.77;0.77;;;;;;;4.12;70.94;93479.56;5032711;28;20206;-78
2021/01/24 03:43:24;;;;;;;0.90;0.90;;;;;;;4.03;71.19;93484.03;5032186;28;20531;-78
2021/01/24 03:45:50;;;;;;;1.10;0.70;;;;;;;4.01;71.44;93485.19;5032338;28;20230;-77
2021/01/24 03:48:16;;;;;;;0.70;0.70;;;;;;;3.96;71.34;93475.59;5032228;28;20281;-78
2021/01/24 03:50:42;;;;;;;1.17;0.70;;;;;;;3.80;71.88;93481.75;5031124;28;20206;-78
2021/01/24 03:53:08;;;;;;;1.20;0.80;;;;;;;3.73;71.84;93487.78;5032356;28;20261;-78
2021/01/24 03:55:34;;;;;;;0.63;0.63;;;;;;;3.70;71.74;93496.56;5031873;28;20207;-78
2021/01/24 03:58:01;;;;;;;0.80;0.80;;;;;;;3.83;70.84;93497.63;5032083;28;20624;-78
2021/01/24 04:00:27;;;;;;;0.80;0.80;;;;;;;3.91;70.78;93497.47;5032289;28;20574;-78
2021/01/24 04:02:53;;;;;;;0.70;0.70;;;;;;;3.75;70.69;93496.78;5032043;28;20226;-78
2021/01/24 04:05:19;;;;;;;0.63;0.63;;;;;;;3.77;70.58;93501.69;5031326;28;20292;-78
2021/01/24 04:07:45;;;;;;;0.60;0.60;;;;;;;3.88;69.74;93502.94;5031935;28;20210;-78
2021/01/24 04:10:13;;;;;;;0.90;0.90;;;;;;;3.87;69.17;93496.25;5031718;28;20206;-78
2021/01/24 04:12:39;;;;;;;0.70;0.70;;;;;;;3.92;68.97;93502.38;5031566;28;20241;-78
2021/01/24 04:15:07;;;;;;;0.93;0.70;;;;;;;3.88;68.98;93503.72;5031601;28;20210;-78
2021/01/24 04:17:33;;;;;;;0.70;0.70;;;;;;;3.90;68.74;93498.44;5031380;28;20569;-78
2021/01/24 04:19:59;;;;;;;0.73;0.70;;;;;;;3.91;68.21;93500.81;5031585;28;20213;-78
2021/01/24 04:22:25;;;;;;;1.13;0.70;;;;;;;3.84;68.21;93509.38;5031337;28;20226;-78
2021/01/24 04:24:51;;;;;;;0.73;0.73;;;;;;;3.88;67.73;93503.72;5031713;28;20767;-78
2021/01/24 04:27:17;;;;;;;1.40;0.80;;;;;;;3.86;67.82;93520.16;5031427;28;20732;-78
2021/01/24 04:29:43;;;;;;;0.60;0.60;;;;;;;3.90;67.64;93521.34;5031097;28;20194;-78
2021/01/24 04:32:10;;;;;;;0.70;0.70;;;;;;;3.87;67.69;93519.97;5031467;28;20224;-78
2021/01/24 04:34:36;;;;;;;0.60;0.60;;;;;;;3.92;67.41;93535.47;5031298;28;20543;-78
2021/01/24 04:37:02;;;;;;;0.60;0.60;;;;;;;3.80;67.59;93542.84;5031395;28;20210;-78
2021/01/24 04:39:28;;;;;;;0.70;0.70;;;;;;;3.78;67.74;93554.97;5031166;28;20194;-78
2021/01/24 04:41:55;;;;;;;0.77;0.77;;;;;;;3.79;67.19;93556.53;5031287;28;20755;-78
2021/01/24 04:44:22;;;;;;;0.97;0.80;;;;;;;3.79;67.31;93564.16;5031031;28;20226;-78
2021/01/24 04:46:50;;;;;;;0.70;0.70;;;;;;;3.85;67.39;93566.97;5031090;28;20197;-78
2021/01/24 04:49:17;;;;;;;0.70;0.70;;;;;;;3.86;67.18;93560.88;5030885;28;20210;-78
2021/01/24 04:51:43;;;;;;;0.77;0.77;;;;;;;3.91;67.06;93571.28;5030996;28;20264;-78
2021/01/24 04:54:09;;;;;;;0.67;0.67;;;;;;;3.88;66.85;93581.81;5031168;28;20195;-78
2021/01/24 04:56:37;;;;;;;0.60;0.60;;;;;;;3.70;67.01;93582.28;5030812;28;20205;-78
2021/01/24 04:59:04;;;;;;;0.83;0.80;;;;;;;3.64;66.87;93576.19;5031522;28;20221;-78
2021/01/24 05:01:32;;;;;;;0.70;0.70;;;;;;;3.54;66.83;93578.25;5030718;28;20222;-78
2021/01/24 05:03:59;;;;;;;0.60;0.60;;;;;;;3.56;67.25;93581.41;5030984;28;20256;-78
2021/01/24 05:06:26;;;;;;;0.97;0.67;;;;;;;3.61;67.07;93584.19;5030399;28;20818;-78
2021/01/24 05:08:52;;;;;;;0.60;0.60;;;;;;;3.63;66.19;93581.47;5031163;28;20202;-78
2021/01/24 05:11:18;;;;;;;0.80;0.70;;;;;;;3.66;66.36;93601.44;5030874;28;20206;-78
2021/01/24 05:13:44;;;;;;;0.60;0.60;;;;;;;3.62;65.63;93603.56;5030772;28;20206;-78
2021/01/24 05:16:10;;;;;;;0.70;0.70;;;;;;;3.57;65.73;93602.53;5030463;28;20194;-78
2021/01/24 05:18:36;;;;;;;0.60;0.60;;;;;;;3.58;65.79;93614.28;5030719;28;20214;-79
2021/01/24 05:21:03;;;;;;;0.70;0.70;;;;;;;3.54;65.29;93613.84;5030896;28;20210;-78
2021/01/24 05:23:30;;;;;;;0.60;0.60;;;;;;;3.53;65.68;93614.81;5030526;28;20571;-79
2021/01/24 05:25:57;;;;;;;1.00;0.73;;;;;;;3.51;65.63;93624.41;5030617;28;20605;-78
2021/01/24 05:28:25;;;;;;;0.83;0.80;;;;;;;3.51;65.05;93626.94;5030608;28;20328;-79
2021/01/24 05:31:04;;;;;;;2.00;0.80;;;;;;;3.49;65.08;93639.03;5030386;28;20741;-78
2021/01/24 05:33:30;;;;;;;0.70;0.70;;;;;;;3.40;65.77;93648.56;5030692;28;20735;-78
2021/01/24 05:35:56;;;;;;;1.37;0.70;;;;;;;3.30;66.17;93642.97;5030305;28;20232;-78
2021/01/24 05:38:33;;;;;;;0.60;0.60;;;;;;;3.32;66.37;93650.41;5030423;28;20570;-78
2021/01/24 05:41:02;;;;;;;0.80;0.80;;;;;;;3.40;65.83;93663.81;5030493;28;20211;-78
2021/01/24 05:43:35;;;;;;;1.03;0.80;;;;;;;3.43;66.12;93665.22;5029830;28;20233;-78
2021/01/24 05:46:01;;;;;;;0.70;0.70;;;;;;;3.44;65.56;93669.34;5029728;28;20226;-78
2021/01/24 05:48:28;;;;;;;0.70;0.70;;;;;;;3.34;65.00;93669.63;5030526;28;20271;-78
2021/01/24 05:50:54;;;;;;;0.63;0.63;;;;;;;3.21;65.18;93687.28;5030300;28;20190;-78
2021/01/24 05:53:20;;;;;;;0.60;0.60;;;;;;;3.19;65.11;93694.28;5030080;28;20276;-78
2021/01/24 05:55:47;;;;;;;0.70;0.70;;;;;;;3.20;64.84;93705.25;5030208;28;20194;-78
2021/01/24 05:58:18;;;;;;;0.90;0.90;;;;;;;3.23;64.66;93704.91;5030530;28;20198;-78
2021/01/24 06:00:46;;;;;;;0.70;0.70;;;;;;;3.22;64.57;93703.31;5029940;28;20198;-78
2021/01/24 06:03:13;;;;;;;0.60;0.60;;;;;;;3.25;64.10;93710.59;5030423;28;20226;-77
2021/01/24 06:05:39;;;;;;;0.60;0.60;;;;;;;3.14;64.19;93716.91;5030317;28;20218;-78
2021/01/24 06:08:06;;;;;;;0.70;0.70;;;;;;;3.13;64.58;93712.78;5030097;28;20224;-78
2021/01/24 06:10:32;;;;;;;0.80;0.80;;;;;;;3.05;64.43;93720.53;5030877;28;20209;-78
2021/01/24 06:13:00;;;;;;;0.60;0.60;;;;;;;3.05;64.66;93723.06;5031770;28;20218;-79
2021/01/24 06:15:28;;;;;;;0.60;0.60;;;;;;;3.08;64.62;93717.63;5033896;28;20209;-78
2021/01/24 06:17:56;;;;;;;0.67;0.67;;;;;;;3.13;64.89;93723.75;5033921;28;20574;-78
2021/01/24 06:20:23;;;;;;;0.70;0.70;;;;;;;3.15;64.55;93727.88;5035600;28;20210;-77
2021/01/24 06:22:55;;;;;;;0.87;0.87;;;;;;;3.16;64.09;93722.63;5034069;28;20214;-78
2021/01/24 06:25:25;;;;;;;0.93;0.80;;;;;;;3.17;63.89;93723.41;5034321;28;20825;-79
2021/01/24 06:27:54;;;;;;;0.97;0.80;;;;;;;3.21;63.79;93727.97;5033802;28;20199;-78
2021/01/24 06:30:25;;;;;;;0.70;0.70;;;;;;;3.22;63.63;93737.16;5034313;28;20577;-78
2021/01/24 06:32:51;;;;;;;0.70;0.70;;;;;;;3.03;63.37;93733.41;5033822;28;20230;-78
2021/01/24 06:35:19;;;;;;;0.80;0.80;;;;;;;3.00;63.64;93733.75;5033400;28;20206;-78
2021/01/24 06:37:58;;;;;;;0.80;0.80;;;;;;;2.88;63.38;93736.94;5013962;28;20203;-78
2021/01/24 06:40:27;;;;;;;0.60;0.60;;;;;;;2.99;63.27;93749.97;5013734;28;20197;-78
2021/01/24 06:42:58;;;;;;;1.00;1.00;;;;;;;2.98;64.30;93757.78;5032930;28;20590;-79
2021/01/24 06:45:42;;;;;;;0.80;0.80;;;;;;;2.94;63.51;93757.31;5032830;28;20214;-77
2021/01/24 06:48:10;;;;;;;0.63;0.63;;;;;;;2.97;63.47;93772.22;5033999;28;20898;-78
2021/01/24 06:50:41;;;;;;;0.90;0.80;;;;;;;3.00;64.56;93776.19;5034371;28;20225;-79
2021/01/24 06:53:09;;;;;;;0.80;0.80;;;;;;;3.12;64.04;93777.31;5033833;28;20226;-78
2021/01/24 06:55:37;;;;;;;0.80;0.80;;;;;;;3.14;63.58;93777.94;5033093;28;20205;-78
2021/01/24 06:58:22;;;;;;;0.70;0.70;;;;;;;3.16;63.67;93788.72;5033176;28;20650;-78
2021/01/24 07:00:50;;;;;;;1.43;0.83;;;;;;;3.22;63.49;93789.78;5033980;28;20208;-78
2021/01/24 07:03:17;;;;;;;0.90;0.90;;;;;;;3.23;63.13;93787.06;5033305;28;20218;-78
2021/01/24 07:05:43;;;;;;;0.70;0.70;;;;;;;3.30;63.45;93795.53;5032583;28;20233;-78
2021/01/24 07:08:28;;;;;;;0.97;0.90;;;;;;;3.29;63.41;93793.97;5033182;28;20673;-78
2021/01/24 07:10:54;;;;;;;0.83;0.80;;;;;;;3.06;63.72;93804.25;5033265;28;20249;-78
2021/01/24 07:13:35;;;;;;;3.67;2.40;;;;;;;3.06;63.66;93796.63;5033073;28;20221;-78
2021/01/24 07:16:04;;;;;;;1.57;1.10;;;;;;;3.06;63.86;93814.41;5033073;28;20249;-78
2021/01/24 07:18:39;;;;;;;0.80;0.80;;;;;;;2.96;64.37;93816.41;5033077;28;20210;-78
2021/01/24 07:21:05;;;;;;;0.77;0.77;;;;;;;3.00;64.10;93829.56;5033795;28;20218;-78
2021/01/24 07:23:32;;;;;;;0.80;0.80;;;;;;;3.14;64.00;93831.31;5032245;28;20195;-78
2021/01/24 07:26:00;;;;;;;0.80;0.80;;;;;;;3.33;62.17;93832.56;5028102;28;20273;-78
2021/01/24 07:28:28;;;;;;;0.80;0.80;;;;;;;3.19;61.83;93835.88;5013432;28;20207;-78
2021/01/24 07:30:58;;;;;;;0.77;0.77;;;;;;;3.34;61.99;93834.94;5016100;28;20201;-78
2021/01/24 07:33:25;;;;;;;0.83;0.83;;;;;;;3.72;61.06;93838.16;5029656;28;20210;-78
2021/01/24 07:35:51;;;;;;;0.80;0.80;;;;;;;4.19;60.31;93842.00;5031822;28;20207;-78
2021/01/24 07:38:17;;;;;;;0.73;0.73;;;;;;;4.53;58.90;93835.47;5031981;28;20202;-78
2021/01/24 07:40:43;;;;;;;0.87;0.87;;;;;;;4.48;58.54;93841.91;5032009;28;20236;-78
2021/01/24 07:43:10;;;;;;;1.07;0.93;;;;;;;4.45;58.70;93849.09;5031359;28;20808;-78
2021/01/24 07:45:36;;;;;;;0.90;0.90;;;;;;;4.71;58.33;93846.03;5031679;28;20222;-78
2021/01/24 07:48:03;;;;;;;0.97;0.97;;;;;;;4.82;57.19;93842.97;5032027;28;20209;-78
2021/01/24 07:50:30;;;;;;;1.10;1.00;;;;;;;4.97;57.71;93845.44;5032210;28;20233;-78
2021/01/24 07:52:56;;;;;;;4.17;3.03;;;;;;;5.01;57.02;93852.53;5027770;28;20214;-79
2021/01/24 07:55:25;;;;;;;1.10;1.00;;;;;;;5.07;56.32;93851.00;5031858;28;20213;-78
2021/01/24 07:57:51;;;;;;;0.73;0.73;;;;;;;5.00;56.18;93856.06;5031747;28;20248;-78
2021/01/24 08:00:17;;;;;;;0.80;0.80;;;;;;;5.07;55.71;93854.34;5031839;28;20202;-79
2021/01/24 08:02:44;;;;;;;0.80;0.80;;;;;;;5.16;54.88;93860.09;5031183;28;20221;-79
2021/01/24 08:05:12;;;;;;;0.90;0.90;;;;;;;5.11;54.20;93864.97;5032230;28;20218;-79
2021/01/24 08:07:39;;;;;;;0.83;0.83;;;;;;;4.94;53.98;93869.56;5032533;28;20293;-78
2021/01/24 08:10:07;;;;;;;0.80;0.80;;;;;;;5.00;54.10;93876.47;5031964;28;20213;-79
2021/01/24 08:12:33;;;;;;;0.80;0.80;;;;;;;4.89;54.66;93887.16;5031315;28;20222;-79
2021/01/24 08:14:59;;;;;;;0.90;0.90;;;;;;;5.08;54.35;93888.28;5032101;28;20194;-78
2021/01/24 08:17:40;;;;;;;;;;;;;;;;;;;;;
2021/01/24 08:20:08;;;;;;;1.00;1.00;;;;;;;5.29;53.82;93883.16;5031585;28;20210;-78
2021/01/24 08:22:34;;;;;;;0.90;0.90;;;;;;;5.53;52.55;93889.59;5031641;28;20786;-78
2021/01/24 08:25:03;;;;;;;2.20;1.80;;;;;;;5.27;52.38;93904.72;5031775;28;20222;-79
2021/01/24 08:27:30;;;;;;;0.83;0.83;;;;;;;5.08;52.95;93891.63;5031652;28;20252;-79
2021/01/24 08:29:56;;;;;;;2.07;0.90;;;;;;;4.86;53.24;93890.06;5031332;28;20229;-79
2021/01/24 08:32:23;;;;;;;1.20;1.10;;;;;;;4.83;53.45;93885.31;5031769;28;20218;-79
2021/01/24 08:34:49;;;;;;;0.90;0.90;;;;;;;4.79;52.61;93882.38;5031589;28;20194;-80
2021/01/24 08:37:18;;;;;;;0.90;0.90;;;;;;;4.60;52.46;93884.75;5032050;28;20214;-79
2021/01/24 08:39:45;;;;;;;0.83;0.80;;;;;;;4.31;53.33;93894.06;5032294;28;20226;-79
2021/01/24 08:42:12;;;;;;;0.90;0.90;;;;;;;4.02;54.23;93894.91;5030590;28;20234;-79
2021/01/24 08:44:51;;;;;;;0.97;0.90;;;;;;;3.92;55.09;93903.78;5031490;28;20206;-79
2021/01/24 08:47:25;;;;;;;0.87;0.87;;;;;;;3.96;55.36;93902.47;5031912;28;20232;-79
2021/01/24 08:50:04;;;;;;;1.00;1.00;;;;;;;4.11;55.21;93904.00;5031819;28;20201;-79
2021/01/24 08:52:30;;;;;;;0.70;0.70;;;;;;;4.00;55.03;93904.47;5031163;28;20225;-79
2021/01/24 08:55:00;;;;;;;0.90;0.90;;;;;;;4.03;55.22;93908.44;5030858;28;20229;-79
2021/01/24 08:57:33;;;;;;;0.80;0.80;;;;;;;4.23;54.79;93914.56;5026031;28;20202;-79
2021/01/24 09:00:01;;;;;;;0.90;0.90;;;;;;;4.25;54.80;93922.78;5031591;28;20797;-79
2021/01/24 09:02:28;;;;;;;1.40;1.30;;;;;;;4.08;54.18;93929.81;5031011;28;20214;-79
2021/01/24 09:04:54;;;;;;;1.10;1.00;;;;;;;3.83;53.27;93920.13;5031467;28;20218;-79
2021/01/24 09:07:20;;;;;;;1.53;1.30;;;;;;;3.74;53.52;93927.84;5031511;28;20198;-79
2021/01/24 09:09:48;;;;;;;1.20;1.10;;;;;;;3.81;52.68;93926.19;5032097;28;20203;-79
2021/01/24 09:12:16;;;;;;;1.30;1.20;;;;;;;3.77;51.81;93944.50;5030627;28;20218;-77
2021/01/24 09:14:43;;;;;;;3.77;1.27;;;;;;;4.51;64.48;93945.22;5029048;28;20194;-76
2021/01/24 09:17:11;;;;;;;3.13;1.10;;;;;;;4.94;52.54;93932.50;5029658;28;20190;-80
2021/01/24 09:19:42;;;;;;;1.10;1.00;;;;;;;4.81;49.68;93948.47;5031429;28;22292;-79
2021/01/24 09:22:09;;;;;;;0.93;0.90;;;;;;;4.50;49.27;93943.63;5030889;28;20222;-79
2021/01/24 09:24:36;;;;;;;1.20;1.10;;;;;;;4.38;50.04;93965.47;5031023;28;20206;-79
2021/01/24 09:27:03;;;;;;;1.33;1.20;;;;;;;4.28;50.09;93970.03;5030578;28;20206;-79
2021/01/24 09:29:29;;;;;;;1.30;1.20;;;;;;;4.24;49.79;93973.88;5030857;28;20194;-79
2021/01/24 09:31:56;;;;;;;1.30;1.20;;;;;;;4.11;48.85;93962.59;5030081;28;20225;-79
2021/01/24 09:34:22;;;;;;;1.40;1.30;;;;;;;3.70;48.62;93966.53;5030605;28;20194;-79
2021/01/24 09:36:48;;;;;;;1.53;1.20;;;;;;;3.50;49.45;93978.94;5030828;28;20267;-79
2021/01/24 09:39:14;;;;;;;1.40;1.30;;;;;;;3.48;49.12;93974.03;5029870;28;20224;-79
2021/01/24 09:41:40;;;;;;;1.63;1.40;;;;;;;3.80;49.31;93985.69;5030548;28;20222;-79
2021/01/24 09:44:07;;;;;;;1.50;1.40;;;;;;;4.12;48.93;93981.19;5030314;28;20582;-79
2021/01/24 09:46:33;;;;;;;2.93;1.70;;;;;;;4.36;48.72;93978.38;5030707;28;20329;-79
2021/01/24 09:49:00;;;;;;;2.33;1.60;;;;;;;4.49;48.00;93981.06;5033699;28;20197;-79
2021/01/24 09:51:31;;;;;;;2.60;1.50;;;;;;;4.44;47.76;93985.91;5034878;28;20202;-79
2021/01/24 09:53:57;;;;;;;3.60;1.80;;;;;;;4.55;47.70;93994.88;5034391;28;20233;-79
2021/01/24 09:56:24;;;;;;;2.90;1.33;;;;;;;4.80;47.51;93978.28;5034206;28;20202;-79
2021/01/24 09:58:50;;;;;;;1.50;1.40;;;;;;;4.96;47.01;93990.00;5035196;28;20201;-79
2021/01/24 10:01:17;;;;;;;1.33;1.20;;;;;;;4.76;46.32;93989.81;5034739;28;20283;-79
2021/01/24 10:03:44;;;;;;;1.33;1.10;;;;;;;4.80;45.82;93988.47;5034491;28;20277;-79
2021/01/24 10:06:11;;;;;;;1.30;1.17;;;;;;;4.81;46.04;93995.13;5035146;28;20316;-79
2021/01/24 10:08:37;;;;;;;3.50;1.40;;;;;;;4.72;46.36;93993.69;5036198;28;20198;-79
2021/01/24 10:11:03;;;;;;;1.73;1.47;;;;;;;4.64;46.03;94016.72;5036462;28;20289;-79
2021/01/24 10:13:29;;;;;;;1.40;1.30;;;;;;;4.60;46.05;94004.53;5036096;28;20243;-80
2021/01/24 10:15:56;;;;;;;1.87;1.60;;;;;;;4.63;46.44;93992.19;5035643;28;20277;-79
2021/01/24 10:18:22;;;;;;;1.40;1.30;;;;;;;4.53;46.44;94003.66;5036696;28;20605;-79
2021/01/24 10:20:49;;;;;;;2.33;1.40;;;;;;;4.39;46.75;94000.94;5036425;28;20210;-79
2021/01/24 10:23:17;;;;;;;1.87;1.40;;;;;;;4.36;46.45;93998.75;5035053;28;20222;-79
2021/01/24 10:25:43;;;;;;;1.93;1.20;;;;;;;4.50;46.33;94002.25;5034841;28;20214;-79
2021/01/24 10:28:09;;;;;;;4.83;1.40;;;;;;;4.60;45.66;94002.78;5017600;28;20217;-79
2021/01/24 10:30:35;;;;;;;1.87;1.30;;;;;;;4.45;46.12;94000.22;5035871;28;20208;-79
2021/01/24 10:33:01;;;;;;;1.40;1.30;;;;;;;4.48;45.94;93991.44;5034520;28;20210;-79
2021/01/24 10:35:27;;;;;;;4.77;1.57;;;;;;;4.22;45.64;94006.41;5036133;28;20293;-79
2021/01/24 10:37:53;;;;;;;1.50;1.30;;;;;;;4.12;45.79;93999.03;5035728;28;20729;-79
2021/01/24 10:40:20;;;;;;;1.43;1.33;;;;;;;4.13;45.59;93996.31;5035505;28;20289;-79
2021/01/24 10:42:46;;;;;;;1.77;1.40;;;;;;;4.08;45.44;94006.22;5034569;28;20222;-79
2021/01/24 10:45:13;;;;;;;1.57;1.33;;;;;;;4.04;46.11;94001.69;5034317;28;20693;-79
2021/01/24 10:47:40;;;;;;;3.30;1.30;;;;;;;4.37;46.29;94000.34;5035103;28;20885;-79
2021/01/24 10:50:08;;;;;;;1.40;1.30;;;;;;;4.44;45.70;93992.75;5034766;28;20190;-79
2021/01/24 10:52:35;;;;;;;2.53;1.70;;;;;;;4.52;45.65;93995.22;5033751;28;20249;-79
2021/01/24 10:55:01;;;;;;;1.33;1.23;;;;;;;4.40;44.98;93999.19;5033783;28;20233;-79
2021/01/24 10:57:28;;;;;;;2.70;1.40;;;;;;;4.24;44.90;93987.41;5034243;28;20187;-79
2021/01/24 10:59:54;;;;;;;2.23;1.20;;;;;;;4.28;44.85;93993.75;5033708;28;20643;-79
2021/01/24 11:02:20;;;;;;;2.23;1.23;;;;;;;4.26;45.08;94005.88;5033238;28;20226;-79
2021/01/24 11:04:46;;;;;;;1.90;1.53;;;;;;;4.28;45.40;93993.75;5033566;28;20271;-80
2021/01/24 11:07:12;;;;;;;1.70;1.60;;;;;;;4.47;45.56;93998.28;5033940;28;20196;-79
2021/01/24 11:09:38;;;;;;;1.67;1.27;;;;;;;4.48;45.34;93978.69;5033903;28;20205;-79
2021/01/24 11:12:05;;;;;;;2.37;1.60;;;;;;;4.64;44.88;93981.03;5033196;28;20225;-79
2021/01/24 11:14:33;;;;;;;2.60;1.30;;;;;;;4.80;44.58;93980.03;5034247;28;20202;-79
2021/01/24 11:16:59;;;;;;;1.47;1.37;;;;;;;4.86;44.15;93972.44;5035835;28;20198;-79
2021/01/24 11:19:25;;;;;;;2.33;2.07;;;;;;;4.80;43.84;93980.03;5036113;28;20292;-79
2021/01/24 11:21:51;;;;;;;1.57;1.30;;;;;;;4.60;43.14;93979.84;5034989;28;20818;-79
2021/01/24 11:24:17;;;;;;;1.77;1.43;;;;;;;4.57;43.78;93981.94;5034567;28;20586;-79
2021/01/24 11:26:43;;;;;;;1.60;1.30;;;;;;;4.70;43.51;93976.97;5034668;28;20214;-79
2021/01/24 11:29:09;;;;;;;2.37;1.30;;;;;;;4.99;43.62;93983.75;5035766;28;20205;-79
2021/01/24 11:31:36;;;;;;;2.13;1.27;;;;;;;4.83;43.97;93984.75;5034997;28;20225;-81
2021/01/24 11:34:02;;;;;;;1.67;1.30;;;;;;;4.87;44.23;93973.22;5033681;28;20225;-80
2021/01/24 11:36:29;;;;;;;3.07;1.40;;;;;;;4.65;43.96;93984.38;5035554;28;20202;-81
2021/01/24 11:38:55;;;;;;;3.07;1.60;;;;;;;4.68;44.43;93984.81;5035559;28;20225;-82
2021/01/24 11:41:21;;;;;;;1.40;1.30;;;;;;;4.57;44.15;93989.59;5033886;28;20210;-81
2021/01/24 11:43:48;;;;;;;1.73;1.40;;;;;;;4.53;44.04;93978.97;5032331;28;20721;-80
2021/01/24 11:46:14;;;;;;;1.60;1.27;;;;;;;4.64;44.08;93980.25;5032970;28;20857;-79